Time,TemperatureF,DewpointF,PressureIn,WindDirection,WindDirectionDegrees,WindSpeedMPH,WindSpeedGustMPH,Humidity,HourlyPrecipIn,Conditions,Clouds,dailyrainin,SoftwareType,DateUTC
2013-08-16 00:14:00,62.4,27.0,30.03,WSW,243,2.0,4.0,26,0.00,,,0.00,weatherlink.com 1.10,2013-08-16 06:14:00,
2013-08-16 00:29:00,65.2,25.0,30.03,WSW,243,0.0,3.0,22,0.00,,,0.00,weatherlink.com 1.10,2013-08-16 06:29:00,
2013-08-16 00:44:00,65.2,24.0,30.03,WSW,243,0.0,3.0,21,0.00,,,0.00,weatherlink.com 1.10,2013-08-16 06:44:00,
2013-08-16 00:59:00,64.2,25.0,30.04,WSW,243,0.0,2.0,23,0.00,,,0.00,weatherlink.com 1.10,2013-08-16 06:59:00,
2013-08-16 01:14:00,62.4,27.0,30.04,WSW,243,2.0,3.0,26,0.00,,,0.00,weatherlink.com 1.10,2013-08-16 07:14:00,
2013-08-16 01:30:00,60.5,25.0,30.04,WSW,243,0.0,3.0,26,0.00,,,0.00,weatherlink.com 1.10,2013-08-16 07:30:00,
2013-08-16 01:45:00,58.3,28.0,30.04,SW,216,1.0,4.0,31,0.00,,,0.00,weatherlink.com 1.10,2013-08-16 07:45:00,
2013-08-16 02:00:00,58.6,25.0,30.04,West,264,0.0,5.0,28,0.00,,,0.00,weatherlink.com 1.10,2013-08-16 08:00:00,
2013-08-16 02:15:00,59.0,28.0,30.04,West,264,3.0,4.0,31,0.00,,,0.00,weatherlink.com 1.10,2013-08-16 08:15:00,
2013-08-16 02:30:00,58.6,25.0,30.04,West,264,0.0,3.0,28,0.00,,,0.00,weatherlink.com 1.10,2013-08-16 08:30:00,
2013-08-16 02:45:00,59.3,26.0,30.04,West,264,2.0,2.0,28,0.00,,,0.00,weatherlink.com 1.10,2013-08-16 08:45:00,
2013-08-16 03:00:00,58.6,25.0,30.04,West,264,0.0,3.0,28,0.00,,,0.00,weatherlink.com 1.10,2013-08-16 09:00:00,
2013-08-16 03:15:00,58.4,25.0,30.05,West,264,1.0,2.0,28,0.00,,,0.00,weatherlink.com 1.10,2013-08-16 09:15:00,
2013-08-16 03:30:00,57.5,25.0,30.05,West,264,1.0,3.0,29,0.00,,,0.00,weatherlink.com 1.10,2013-08-16 09:30:00,
2013-08-16 03:45:00,56.5,25.0,30.05,West,264,2.0,3.0,30,0.00,,,0.00,weatherlink.com 1.10,2013-08-16 09:45:00,
2013-08-16 04:00:00,59.2,25.0,30.05,West,264,4.0,5.0,27,0.00,,,0.00,weatherlink.com 1.10,2013-08-16 10:00:00,
2013-08-16 04:15:00,60.4,27.0,30.05,SW,216,4.0,6.0,28,0.00,,,0.00,weatherlink.com 1.10,2013-08-16 10:15:00,
2013-08-16 04:30:00,59.6,25.0,30.05,SW,216,0.0,3.0,27,0.00,,,0.00,weatherlink.com 1.10,2013-08-16 10:30:00,
2013-08-16 04:45:00,58.1,25.0,30.05,SW,216,1.0,3.0,28,0.00,,,0.00,weatherlink.com 1.10,2013-08-16 10:45:00,
2013-08-16 05:00:00,56.0,26.0,30.05,West,276,2.0,4.0,31,0.00,,,0.00,weatherlink.com 1.10,2013-08-16 11:00:00,
2013-08-16 05:15:00,56.0,24.0,30.05,WNW,285,0.0,5.0,29,0.00,,,0.00,weatherlink.com 1.10,2013-08-16 11:15:00,
2013-08-16 05:30:00,54.5,26.0,30.05,SW,224,1.0,5.0,34,0.00,,,0.00,weatherlink.com 1.10,2013-08-16 11:30:00,
2013-08-16 05:45:00,54.5,25.0,30.05,WNW,286,3.0,5.0,32,0.00,,,0.00,weatherlink.com 1.10,2013-08-16 11:45:00,
2013-08-16 06:00:00,54.7,27.0,30.05,West,262,3.0,6.0,35,0.00,,,0.00,weatherlink.com 1.10,2013-08-16 12:00:00,
2013-08-16 06:15:00,54.2,25.0,30.06,West,273,2.0,6.0,33,0.00,,,0.00,weatherlink.com 1.10,2013-08-16 12:15:00,
2013-08-16 06:30:00,53.5,26.0,30.06,West,269,2.0,6.0,34,0.00,,,0.00,weatherlink.com 1.10,2013-08-16 12:30:00,
2013-08-16 06:45:00,53.8,29.0,30.06,West,260,2.0,6.0,38,0.00,,,0.00,weatherlink.com 1.10,2013-08-16 12:45:00,
2013-08-16 07:00:00,54.2,26.0,30.07,WNW,291,0.0,5.0,34,0.00,,,0.00,weatherlink.com 1.10,2013-08-16 13:00:00,
2013-08-16 07:15:00,57.5,26.0,30.07,WNW,291,1.0,4.0,30,0.00,,,0.00,weatherlink.com 1.10,2013-08-16 13:15:00,
2013-08-16 07:30:00,59.6,26.0,30.07,SSW,212,1.0,3.0,28,0.00,,,0.00,weatherlink.com 1.10,2013-08-16 13:30:00,
2013-08-16 07:45:00,59.9,36.0,30.06,SW,214,6.0,6.0,41,0.00,,,0.00,weatherlink.com 1.10,2013-08-16 13:45:00,
2013-08-16 08:00:00,62.9,34.0,30.06,West,260,0.0,4.0,34,0.00,,,0.00,weatherlink.com 1.10,2013-08-16 14:00:00,
2013-08-16 08:15:00,64.8,36.0,30.07,West,260,0.0,3.0,35,0.00,,,0.00,weatherlink.com 1.10,2013-08-16 14:15:00,
2013-08-16 08:30:00,67.3,38.0,30.07,NE,36,0.0,2.0,34,0.00,,,0.00,weatherlink.com 1.10,2013-08-16 14:30:00,
2013-08-16 08:45:00,68.6,38.0,30.06,NE,36,0.0,2.0,33,0.00,,,0.00,weatherlink.com 1.10,2013-08-16 14:45:00,
2013-08-16 09:00:00,71.6,42.0,30.06,East,83,5.0,7.0,35,0.00,,,0.00,weatherlink.com 1.10,2013-08-16 15:00:00,
2013-08-16 09:15:00,67.3,33.0,30.06,East,81,3.0,8.0,28,0.00,,,0.00,weatherlink.com 1.10,2013-08-16 15:15:00,
2013-08-16 09:30:00,69.8,36.0,30.06,East,84,2.0,7.0,29,0.00,,,0.00,weatherlink.com 1.10,2013-08-16 15:30:00,
2013-08-16 09:45:00,70.3,36.0,30.05,East,79,7.0,10.0,29,0.00,,,0.00,weatherlink.com 1.10,2013-08-16 15:45:00,
2013-08-16 10:00:00,71.3,39.0,30.05,East,91,6.0,8.0,31,0.00,,,0.00,weatherlink.com 1.10,2013-08-16 16:00:00,
2013-08-16 10:15:00,73.2,38.0,30.05,East,90,8.0,10.0,28,0.00,,,0.00,weatherlink.com 1.10,2013-08-16 16:15:00,
2013-08-16 10:30:00,73.9,37.0,30.05,ESE,111,7.0,10.0,26,0.00,,,0.00,weatherlink.com 1.10,2013-08-16 16:30:00,
2013-08-16 10:45:00,74.9,38.0,30.05,East,100,7.0,10.0,26,0.00,,,0.00,weatherlink.com 1.10,2013-08-16 16:45:00,
2013-08-16 11:00:00,75.8,35.0,30.05,East,83,8.0,10.0,23,0.00,,,0.00,weatherlink.com 1.10,2013-08-16 17:00:00,
2013-08-16 11:15:00,77.7,36.0,30.04,ENE,66,3.0,8.0,22,0.00,,,0.00,weatherlink.com 1.10,2013-08-16 17:15:00,
2013-08-16 11:30:00,77.9,36.0,30.03,East,98,8.0,11.0,22,0.00,,,0.00,weatherlink.com 1.10,2013-08-16 17:30:00,
2013-08-16 11:45:00,77.7,37.0,30.03,ENE,77,8.0,10.0,23,0.00,,,0.00,weatherlink.com 1.10,2013-08-16 17:45:00,
2013-08-16 12:01:00,78.8,38.0,30.02,NE,43,5.0,11.0,23,0.00,,,0.00,weatherlink.com 1.10,2013-08-16 18:01:00,
2013-08-16 12:16:00,79.9,37.0,30.02,East,94,10.0,12.0,21,0.00,,,0.00,weatherlink.com 1.10,2013-08-16 18:16:00,
2013-08-16 12:31:00,79.4,36.0,30.02,ENE,76,4.0,9.0,21,0.00,,,0.00,weatherlink.com 1.10,2013-08-16 18:31:00,
2013-08-16 12:46:00,80.7,33.0,30.01,East,92,2.0,9.0,18,0.00,,,0.00,weatherlink.com 1.10,2013-08-16 18:46:00,
2013-08-16 13:01:00,82.0,32.0,30.00,East,99,6.0,9.0,16,0.00,,,0.00,weatherlink.com 1.10,2013-08-16 19:01:00,
2013-08-16 13:16:00,82.8,34.0,30.00,East,88,6.0,7.0,17,0.00,,,0.00,weatherlink.com 1.10,2013-08-16 19:16:00,
2013-08-16 13:31:00,84.1,32.0,30.00,SE,125,6.0,10.0,15,0.00,,,0.00,weatherlink.com 1.10,2013-08-16 19:31:00,
2013-08-16 13:46:00,84.3,35.0,29.99,NE,54,5.0,10.0,17,0.00,,,0.00,weatherlink.com 1.10,2013-08-16 19:46:00,
2013-08-16 14:01:00,84.7,34.0,29.99,ESE,116,0.0,9.0,16,0.00,,,0.00,weatherlink.com 1.10,2013-08-16 20:01:00,
2013-08-16 14:16:00,85.9,31.0,29.98,NE,36,4.0,9.0,14,0.00,,,0.00,weatherlink.com 1.10,2013-08-16 20:16:00,
2013-08-16 14:31:00,87.0,32.0,29.97,ESE,105,5.0,10.0,14,0.00,,,0.00,weatherlink.com 1.10,2013-08-16 20:31:00,
2013-08-16 14:46:00,86.7,26.0,29.97,East,93,5.0,9.0,11,0.00,,,0.00,weatherlink.com 1.10,2013-08-16 20:46:00,
2013-08-16 15:01:00,88.0,29.0,29.96,East,86,9.0,10.0,12,0.00,,,0.00,weatherlink.com 1.10,2013-08-16 21:01:00,
2013-08-16 15:16:00,87.4,29.0,29.95,East,85,9.0,10.0,12,0.00,,,0.00,weatherlink.com 1.10,2013-08-16 21:16:00,
2013-08-16 15:31:00,87.2,27.0,29.95,ENE,73,4.0,8.0,11,0.00,,,0.00,weatherlink.com 1.10,2013-08-16 21:31:00,
2013-08-16 15:46:00,88.2,25.0,29.95,ESE,107,0.0,9.0,10,0.00,,,0.00,weatherlink.com 1.10,2013-08-16 21:46:00,
2013-08-16 16:01:00,87.4,27.0,29.94,East,91,6.0,10.0,11,0.00,,,0.00,weatherlink.com 1.10,2013-08-16 22:01:00,
2013-08-16 16:16:00,88.8,26.0,29.94,ESE,120,3.0,11.0,10,0.00,,,0.00,weatherlink.com 1.10,2013-08-16 22:16:00,
2013-08-16 16:31:00,88.8,26.0,29.94,ESE,110,8.0,13.0,10,0.00,,,0.00,weatherlink.com 1.10,2013-08-16 22:31:00,
2013-08-16 16:46:00,89.0,23.0,29.93,ESE,102,5.0,13.0,9,0.00,,,0.00,weatherlink.com 1.10,2013-08-16 22:46:00,
2013-08-16 17:01:00,89.3,23.0,29.93,ESE,112,1.0,10.0,9,0.00,,,0.00,weatherlink.com 1.10,2013-08-16 23:01:00,
2013-08-16 17:16:00,87.2,34.0,29.93,East,100,3.0,9.0,15,0.00,,,0.00,weatherlink.com 1.10,2013-08-16 23:16:00,
2013-08-16 17:31:00,85.3,34.0,29.92,East,94,5.0,7.0,16,0.00,,,0.00,weatherlink.com 1.10,2013-08-16 23:31:00,
2013-08-16 17:46:00,86.7,35.0,29.92,East,88,6.0,9.0,16,0.00,,,0.00,weatherlink.com 1.10,2013-08-16 23:46:00,
2013-08-16 18:01:00,84.5,37.0,29.92,East,89,3.0,7.0,18,0.00,,,0.00,weatherlink.com 1.10,2013-08-17 00:01:00,
2013-08-16 18:16:00,83.8,37.0,29.92,East,83,2.0,7.0,19,0.00,,,0.00,weatherlink.com 1.10,2013-08-17 00:16:00,
2013-08-16 18:31:00,83.6,33.0,29.91,East,83,0.0,2.0,16,0.00,,,0.00,weatherlink.com 1.10,2013-08-17 00:31:00,
2013-08-16 18:46:00,82.6,40.0,29.91,East,83,0.0,1.0,22,0.00,,,0.00,weatherlink.com 1.10,2013-08-17 00:46:00,
2013-08-16 19:01:00,81.6,43.0,29.91,East,83,0.0,0.0,25,0.00,,,0.00,weatherlink.com 1.10,2013-08-17 01:01:00,
2013-08-16 19:16:00,77.4,44.0,29.91,East,83,2.0,3.0,30,0.00,,,0.00,weatherlink.com 1.10,2013-08-17 01:16:00,
2013-08-16 19:31:00,75.4,36.0,29.91,East,85,2.0,3.0,24,0.00,,,0.00,weatherlink.com 1.10,2013-08-17 01:31:00,
2013-08-16 19:46:00,74.2,37.0,29.91,SSW,197,5.0,5.0,26,0.00,,,0.00,weatherlink.com 1.10,2013-08-17 01:46:00,
2013-08-16 20:01:00,72.5,37.0,29.91,SSW,197,4.0,4.0,27,0.00,,,0.00,weatherlink.com 1.10,2013-08-17 02:01:00,
2013-08-16 20:16:00,71.5,33.0,29.92,SW,231,4.0,6.0,24,0.00,,,0.00,weatherlink.com 1.10,2013-08-17 02:16:00,
2013-08-16 20:31:00,71.5,31.0,29.93,SW,231,2.0,4.0,22,0.00,,,0.00,weatherlink.com 1.10,2013-08-17 02:31:00,
2013-08-16 20:46:00,70.3,31.0,29.93,SW,231,4.0,5.0,23,0.00,,,0.00,weatherlink.com 1.10,2013-08-17 02:46:00,
2013-08-16 21:01:00,71.5,28.0,29.93,SW,231,7.0,7.0,20,0.00,,,0.00,weatherlink.com 1.10,2013-08-17 03:01:00,
2013-08-16 21:16:00,71.3,27.0,29.94,SW,224,4.0,6.0,19,0.00,,,0.00,weatherlink.com 1.10,2013-08-17 03:16:00,
2013-08-16 21:31:00,70.9,28.0,29.94,SW,224,0.0,3.0,20,0.00,,,0.00,weatherlink.com 1.10,2013-08-17 03:31:00,
2013-08-16 21:46:00,71.1,24.0,29.95,SW,224,0.0,1.0,17,0.00,,,0.00,weatherlink.com 1.10,2013-08-17 03:46:00,
2013-08-16 22:01:00,73.0,23.0,29.95,SW,224,0.0,2.0,15,0.00,,,0.00,weatherlink.com 1.10,2013-08-17 04:01:00,
2013-08-16 22:17:00,75.1,23.0,29.95,SSW,207,7.0,11.0,14,0.00,,,0.00,weatherlink.com 1.10,2013-08-17 04:17:00,
2013-08-16 22:31:00,77.0,21.0,29.95,SSW,193,3.0,11.0,12,0.00,,,0.00,weatherlink.com 1.10,2013-08-17 04:31:00,
2013-08-16 22:46:00,76.8,20.0,29.95,WSW,237,6.0,12.0,12,0.00,,,0.00,weatherlink.com 1.10,2013-08-17 04:46:00,
2013-08-16 23:02:00,75.8,21.0,29.95,SSW,210,11.0,11.0,13,0.00,,,0.00,weatherlink.com 1.10,2013-08-17 05:02:00,
2013-08-16 23:17:00,76.7,20.0,29.95,WSW,247,4.0,13.0,12,0.00,,,0.00,weatherlink.com 1.10,2013-08-17 05:17:00,
2013-08-16 23:32:00,76.3,20.0,29.95,WSW,258,8.0,12.0,12,0.00,,,0.00,weatherlink.com 1.10,2013-08-17 05:32:00,
2013-08-16 23:47:00,76.5,20.0,29.95,WSW,242,15.0,17.0,12,0.00,,,0.00,weatherlink.com 1.10,2013-08-17 05:47:00,